Time;durP1;ratioP1;P1;durP2;ratioP2;P2;SDS_P1;SDS_P2;PMS_P1;PMS_P2;Temp;Humidity;BMP_temperature;BMP_pressure;BME280_temperature;BME280_humidity;BME280_pressure;Samples;Min_cycle;Max_cycle;Signal;HPM_P1;HPM_P2
2021/05/09 00:00:45;;;;;;;5.55;2.42;;;;;;;19.35;53.75;100580.06;5072746;28;20387;-64
2021/05/09 00:03:10;;;;;;;5.88;2.33;;;;;;;19.35;53.96;100580.06;5072429;28;20109;-64
2021/05/09 00:05:35;;;;;;;5.80;2.33;;;;;;;19.34;53.74;100570.50;5071360;28;20048;-64
2021/05/09 00:08:01;;;;;;;4.60;2.08;;;;;;;19.30;53.73;100569.09;5072165;28;20737;-64
2021/05/09 00:10:29;;;;;;;6.07;2.80;;;;;;;19.31;53.62;100565.50;5072063;28;20028;-64
2021/05/09 00:13:00;;;;;;;5.70;2.20;;;;;;;19.30;53.91;100570.91;5071415;28;20027;-64
2021/05/09 00:15:26;;;;;;;5.88;2.10;;;;;;;19.29;53.64;100563.94;5072088;28;20078;-64
2021/05/09 00:17:55;;;;;;;6.65;2.55;;;;;;;19.29;54.07;100558.66;5072233;28;20025;-64
2021/05/09 00:20:23;;;;;;;4.70;2.28;;;;;;;19.27;53.93;100553.53;5071003;28;20021;-63
2021/05/09 00:22:48;;;;;;;6.50;2.47;;;;;;;19.27;53.96;100550.88;5071610;28;20090;-64
2021/05/09 00:25:14;;;;;;;6.88;2.50;;;;;;;19.28;53.69;100549.06;5071730;28;20503;-64
2021/05/09 00:27:41;;;;;;;6.03;2.25;;;;;;;19.26;53.64;100546.56;5071325;28;20508;-63
2021/05/09 00:30:14;;;;;;;6.10;2.25;;;;;;;19.24;53.97;100537.94;5071878;28;20063;-64
2021/05/09 00:32:42;;;;;;;5.45;2.17;;;;;;;19.25;53.71;100541.41;5071409;28;20024;-63
2021/05/09 00:35:07;;;;;;;5.20;2.15;;;;;;;19.21;54.14;100536.41;5071481;28;20021;-64
2021/05/09 00:37:34;;;;;;;4.22;2.20;;;;;;;19.24;53.95;100535.31;5071472;28;20094;-63
2021/05/09 00:39:59;;;;;;;4.97;2.28;;;;;;;19.23;53.52;100533.63;5071109;28;20024;-63
2021/05/09 00:42:33;;;;;;;5.65;2.20;;;;;;;19.22;53.55;100531.97;5071681;28;20518;-63
2021/05/09 00:44:59;;;;;;;5.10;2.00;;;;;;;19.19;53.80;100530.44;5071820;28;20020;-64
2021/05/09 00:47:24;;;;;;;6.60;2.13;;;;;;;19.18;53.73;100523.50;5070941;28;20074;-62
2021/05/09 00:49:50;;;;;;;5.40;2.05;;;;;;;19.20;53.74;100529.47;5071558;28;20128;-65
2021/05/09 00:52:15;;;;;;;5.80;2.05;;;;;;;19.20;53.79;100520.69;5071469;28;20040;-65
2021/05/09 00:54:50;;;;;;;5.00;2.40;;;;;;;19.18;53.63;100523.50;5070826;28;20054;-63
2021/05/09 00:57:16;;;;;;;4.82;2.30;;;;;;;19.18;53.71;100520.00;5071452;28;20016;-64
2021/05/09 00:59:43;;;;;;;6.38;2.40;;;;;;;19.18;53.93;100520.00;5071805;28;20534;-63
2021/05/09 01:02:09;;;;;;;4.07;1.88;;;;;;;19.14;53.98;100511.53;5070938;28;20397;-64
2021/05/09 01:04:35;;;;;;;5.63;2.22;;;;;;;19.15;53.81;100512.34;5071358;28;20025;-63
2021/05/09 01:07:01;;;;;;;5.55;2.20;;;;;;;19.15;53.70;100521.13;5071518;28;20025;-63
2021/05/09 01:09:30;;;;;;;5.07;2.15;;;;;;;19.12;53.91;100504.72;5070559;28;20051;-65
2021/05/09 01:11:55;;;;;;;5.75;2.60;;;;;;;19.13;53.92;100504.56;5071686;28;20025;-65
2021/05/09 01:14:20;;;;;;;4.75;1.92;;;;;;;19.14;54.11;100500.97;5071176;28;20033;-64
2021/05/09 01:16:45;;;;;;;4.10;1.80;;;;;;;19.12;53.53;100496.78;5070959;28;20107;-64
2021/05/09 01:19:11;;;;;;;6.37;2.27;;;;;;;19.13;53.62;100494.00;5071515;28;20032;-64
2021/05/09 01:21:40;;;;;;;4.95;2.30;;;;;;;19.12;53.79;100497.63;5071040;28;20301;-65
2021/05/09 01:24:05;;;;;;;4.88;2.13;;;;;;;19.11;53.75;100488.03;5070795;28;20032;-64
2021/05/09 01:26:31;;;;;;;6.43;2.30;;;;;;;19.11;53.60;100489.84;5070908;28;20479;-64
2021/05/09 01:28:56;;;;;;;5.72;2.47;;;;;;;19.10;53.74;100483.72;5070598;28;20440;-64
2021/05/09 01:31:22;;;;;;;5.00;2.10;;;;;;;19.11;53.95;100481.94;5071071;28;20021;-64
2021/05/09 01:33:47;;;;;;;6.78;2.13;;;;;;;19.10;53.46;100474.97;5071324;28;20448;-64
2021/05/09 01:36:18;;;;;;;5.80;2.30;;;;;;;19.06;53.69;100471.78;5070146;28;20033;-63
2021/05/09 01:38:44;;;;;;;4.60;2.28;;;;;;;19.09;53.79;100470.66;5071413;28;20316;-64
2021/05/09 01:41:09;;;;;;;4.82;1.90;;;;;;;19.07;53.70;100468.16;5071411;28;20052;-64
2021/05/09 01:43:35;;;;;;;8.38;2.30;;;;;;;19.05;53.56;100464.81;5070130;28;20460;-64
2021/05/09 01:46:03;;;;;;;5.15;2.20;;;;;;;19.06;53.60;100461.22;5071272;28;20025;-64
2021/05/09 01:48:29;;;;;;;7.68;2.50;;;;;;;19.07;53.90;100467.31;5074040;28;20032;-64
2021/05/09 01:50:55;;;;;;;4.70;2.10;;;;;;;19.06;53.76;100468.28;5073827;28;20123;-64
2021/05/09 01:53:21;;;;;;;6.85;2.58;;;;;;;19.05;53.74;100462.19;5074157;28;20033;-64
2021/05/09 01:55:49;;;;;;;4.53;2.15;;;;;;;19.06;53.88;100468.28;5074741;28;20146;-64
2021/05/09 01:58:14;;;;;;;6.72;2.30;;;;;;;18.99;53.57;100458.31;5073693;28;20364;-64
2021/05/09 02:00:39;;;;;;;4.68;2.15;;;;;;;19.03;53.58;100461.50;5074857;28;20054;-64
2021/05/09 02:03:05;;;;;;;5.20;2.35;;;;;;;19.00;53.69;100456.50;5074600;28;20032;-64
2021/05/09 02:05:30;;;;;;;7.50;2.53;;;;;;;19.02;53.67;100463.28;5073394;28;20451;-64
2021/05/09 02:07:55;;;;;;;4.95;2.40;;;;;;;19.01;53.76;100459.00;5074725;28;20025;-64
2021/05/09 02:10:23;;;;;;;6.10;2.03;;;;;;;18.98;53.97;100459.28;5074500;28;20041;-64
2021/05/09 02:12:49;;;;;;;6.13;2.20;;;;;;;18.99;54.04;100452.16;5073986;28;20025;-64
2021/05/09 02:15:14;;;;;;;6.25;2.45;;;;;;;18.99;53.92;100453.03;5074262;28;20028;-64
2021/05/09 02:17:42;;;;;;;6.10;2.10;;;;;;;19.00;53.74;100448.56;5074504;28;20055;-64
2021/05/09 02:20:08;;;;;;;5.47;2.20;;;;;;;18.98;54.09;100434.69;5073676;28;20335;-63
2021/05/09 02:22:36;;;;;;;6.15;2.00;;;;;;;18.96;53.63;100426.91;5073803;28;20031;-64
2021/05/09 02:25:02;;;;;;;5.35;2.08;;;;;;;18.96;53.75;100418.13;5074122;28;20058;-64
2021/05/09 02:27:27;;;;;;;5.53;2.47;;;;;;;18.97;53.84;100419.81;5073746;28;20495;-64
2021/05/09 02:29:52;;;;;;;5.80;2.20;;;;;;;18.96;53.72;100418.13;5074280;28;20036;-64
2021/05/09 02:32:17;;;;;;;8.73;2.35;;;;;;;18.95;53.68;100414.66;5073183;28;20056;-65
2021/05/09 02:34:43;;;;;;;4.63;2.20;;;;;;;18.95;53.61;100414.66;5074353;28;20024;-64
2021/05/09 02:37:08;;;;;;;4.60;2.13;;;;;;;18.95;53.99;100411.19;5074336;28;20025;-64
2021/05/09 02:39:34;;;;;;;5.38;2.15;;;;;;;18.95;53.85;100411.19;5073052;28;20291;-64
2021/05/09 02:41:59;;;;;;;6.00;2.33;;;;;;;18.94;53.59;100409.50;5074397;28;20037;-64
2021/05/09 02:44:25;;;;;;;5.00;2.15;;;;;;;18.92;53.66;100409.66;5073824;28;20376;-64
2021/05/09 02:46:53;;;;;;;5.53;2.30;;;;;;;18.93;53.60;100413.13;5071805;28;20081;-63
2021/05/09 02:49:18;;;;;;;4.82;2.20;;;;;;;18.93;53.96;100405.19;5073189;28;20113;-64
2021/05/09 02:51:43;;;;;;;4.87;2.03;;;;;;;18.92;53.61;100403.56;5074133;28;20029;-64
2021/05/09 02:54:09;;;;;;;5.68;2.03;;;;;;;18.92;53.73;100408.84;5073202;28;20411;-64
2021/05/09 02:56:34;;;;;;;5.95;2.33;;;;;;;18.90;53.86;100408.97;5073006;28;20388;-64
2021/05/09 02:59:01;;;;;;;6.55;2.10;;;;;;;18.91;53.71;100404.50;5073270;28;20028;-64
2021/05/09 03:01:26;;;;;;;5.57;2.10;;;;;;;18.90;53.66;100402.84;5072598;28;20039;-64
2021/05/09 03:03:54;;;;;;;6.83;2.20;;;;;;;18.90;53.93;100398.41;5073563;28;20021;-64
2021/05/09 03:06:20;;;;;;;6.88;2.30;;;;;;;18.89;53.52;100402.00;5072840;28;20288;-64
2021/05/09 03:08:45;;;;;;;4.93;2.10;;;;;;;18.89;53.88;100407.28;5072399;28;20548;-63
2021/05/09 03:11:10;;;;;;;4.07;1.80;;;;;;;18.87;53.88;100403.13;5072931;28;20508;-63
2021/05/09 03:13:36;;;;;;;7.53;2.05;;;;;;;18.88;53.93;100408.25;5072409;28;20779;-63
2021/05/09 03:16:02;;;;;;;5.07;2.15;;;;;;;18.88;53.62;100400.34;5072498;28;20028;-65
2021/05/09 03:18:28;;;;;;;5.68;2.08;;;;;;;18.84;53.63;100391.88;5072718;28;20024;-64
2021/05/09 03:21:03;;;;;;;6.20;2.03;;;;;;;18.87;53.75;100395.19;5072955;28;20051;-64
2021/05/09 03:23:34;;;;;;;6.00;2.10;;;;;;;18.85;53.98;100384.81;5071709;28;20024;-64
2021/05/09 03:25:59;;;;;;;5.28;2.30;;;;;;;18.83;53.69;100384.06;5072687;28;20104;-63
2021/05/09 03:28:25;;;;;;;5.63;2.00;;;;;;;18.83;53.63;100387.56;5071444;28;20120;-63
2021/05/09 03:30:56;;;;;;;5.53;2.10;;;;;;;18.83;53.91;100390.19;5072424;28;20293;-64
2021/05/09 03:33:21;;;;;;;6.70;2.20;;;;;;;18.83;53.65;100390.19;5072470;28;20017;-64
2021/05/09 03:35:46;;;;;;;6.40;2.25;;;;;;;18.84;53.27;100391.03;5072052;28;20082;-64
2021/05/09 03:38:12;;;;;;;5.30;2.20;;;;;;;18.82;53.60;100380.59;5072540;28;20112;-64
2021/05/09 03:40:40;;;;;;;5.85;2.15;;;;;;;18.82;53.61;100377.13;5072428;28;20272;-63
2021/05/09 03:43:05;;;;;;;6.45;2.10;;;;;;;18.79;53.72;100370.31;5071816;28;20047;-64
2021/05/09 03:45:30;;;;;;;4.63;2.30;;;;;;;18.80;53.46;100366.72;5071990;28;20461;-64
2021/05/09 03:47:56;;;;;;;4.97;1.73;;;;;;;18.79;53.94;100359.75;5072333;28;20016;-64
2021/05/09 03:50:21;;;;;;;6.65;1.98;;;;;;;18.80;53.74;100363.22;5071349;28;20086;-64
2021/05/09 03:52:46;;;;;;;5.03;2.00;;;;;;;18.80;53.63;100361.44;5072557;28;20379;-64
2021/05/09 03:55:11;;;;;;;5.07;2.25;;;;;;;18.79;53.89;100353.66;5072290;28;20299;-64
2021/05/09 03:57:37;;;;;;;5.97;2.13;;;;;;;18.78;53.84;100352.78;5071411;28;20027;-64
2021/05/09 04:00:09;;;;;;;7.75;2.20;;;;;;;18.78;53.56;100344.88;5072038;28;20086;-64
2021/05/09 04:02:34;;;;;;;4.35;2.05;;;;;;;18.78;53.62;100349.34;5071912;28;20043;-64
2021/05/09 04:05:00;;;;;;;4.03;2.10;;;;;;;18.77;53.78;100348.50;5071393;28;20103;-64
2021/05/09 04:07:25;;;;;;;4.83;2.20;;;;;;;18.78;53.55;100355.44;5071632;28;20081;-63
2021/05/09 04:09:50;;;;;;;5.10;2.03;;;;;;;18.77;53.59;100351.16;5071189;28;20281;-64
2021/05/09 04:12:15;;;;;;;5.65;1.98;;;;;;;18.76;53.74;100351.28;5071033;28;20444;-63
2021/05/09 04:14:41;;;;;;;4.80;1.80;;;;;;;18.76;53.72;100354.75;5071888;28;20395;-64
2021/05/09 04:17:09;;;;;;;4.93;2.20;;;;;;;18.77;53.68;100359.06;5071899;28;20277;-64
2021/05/09 04:19:35;;;;;;;5.55;2.40;;;;;;;18.76;53.84;100348.66;5070991;28;20074;-64
2021/05/09 04:22:00;;;;;;;4.60;1.98;;;;;;;18.74;53.84;100351.44;5071697;28;20021;-63
2021/05/09 04:24:25;;;;;;;6.18;2.20;;;;;;;18.72;53.51;100352.53;5071577;28;20111;-64
2021/05/09 04:26:51;;;;;;;7.50;2.42;;;;;;;18.75;53.88;100354.88;5070949;28;20024;-64
2021/05/09 04:29:22;;;;;;;6.00;2.03;;;;;;;18.73;53.71;100355.03;5071059;28;20043;-64
2021/05/09 04:31:47;;;;;;;7.28;2.22;;;;;;;18.74;53.54;100351.44;5070685;28;20747;-64
2021/05/09 04:34:12;;;;;;;5.60;2.20;;;;;;;18.74;53.80;100351.44;5071165;28;20021;-64
2021/05/09 04:36:41;;;;;;;4.15;1.85;;;;;;;18.71;53.61;100346.44;5071608;28;20295;-64
2021/05/09 04:39:09;;;;;;;6.05;2.05;;;;;;;18.73;53.74;100352.41;5070763;28;20056;-63
2021/05/09 04:41:35;;;;;;;6.85;2.17;;;;;;;18.73;53.84;100343.66;5071193;28;20052;-65
2021/05/09 04:44:00;;;;;;;4.80;1.87;;;;;;;18.71;53.79;100341.16;5071583;28;20417;-64
2021/05/09 04:46:26;;;;;;;6.15;2.00;;;;;;;18.72;53.87;100348.06;5070519;28;20357;-65
2021/05/09 04:48:51;;;;;;;5.78;2.10;;;;;;;18.70;53.73;100342.13;5071467;28;20504;-64
2021/05/09 04:51:16;;;;;;;6.65;2.20;;;;;;;18.73;53.92;100349.75;5070930;28;20048;-64
2021/05/09 04:53:42;;;;;;;5.43;2.20;;;;;;;18.72;53.80;100350.72;5070846;28;20028;-64
2021/05/09 04:56:08;;;;;;;5.30;1.98;;;;;;;18.71;53.83;100342.94;5071135;28;20364;-64
2021/05/09 04:58:38;;;;;;;6.35;2.15;;;;;;;18.72;53.59;100342.78;5071060;28;20032;-64
2021/05/09 05:01:05;;;;;;;6.85;2.20;;;;;;;18.71;53.93;100343.78;5070564;28;20416;-64
2021/05/09 05:03:34;;;;;;;5.40;2.35;;;;;;;18.70;53.73;100336.00;5071019;28;20074;-64
2021/05/09 05:06:00;;;;;;;5.40;2.17;;;;;;;18.71;53.59;100346.44;5071255;28;20516;-65
2021/05/09 05:08:27;;;;;;;4.95;1.90;;;;;;;18.71;53.88;100338.50;5070007;28;20117;-64
2021/05/09 05:10:52;;;;;;;5.70;1.98;;;;;;;18.71;53.68;100332.38;5071552;28;20021;-64
2021/05/09 05:13:22;;;;;;;4.28;2.80;;;;;;;18.68;54.27;100326.41;5070944;28;20027;-64
2021/05/09 05:15:50;;;;;;;4.63;2.30;;;;;;;18.72;53.67;100336.69;5070628;28;20021;-64
2021/05/09 05:18:15;;;;;;;8.10;2.50;;;;;;;18.74;53.62;100340.00;5071069;28;20421;-64
2021/05/09 05:20:41;;;;;;;6.95;2.30;;;;;;;18.77;53.57;100334.47;5071803;28;20115;-64
2021/05/09 05:23:10;;;;;;;5.13;2.10;;;;;;;18.79;53.59;100335.16;5074339;28;20031;-64
2021/05/09 05:25:36;;;;;;;4.68;1.75;;;;;;;18.87;53.20;100339.75;5075016;28;20074;-64
2021/05/09 05:28:02;;;;;;;5.25;1.70;;;;;;;18.90;53.57;100335.03;5074554;28;20036;-64
2021/05/09 05:30:28;;;;;;;4.72;1.98;;;;;;;18.95;53.29;100330.16;5074486;28;20021;-64
2021/05/09 05:32:57;;;;;;;4.88;1.80;;;;;;;18.99;53.05;100331.56;5075011;28;20027;-64
2021/05/09 05:35:22;;;;;;;4.75;1.60;;;;;;;19.01;52.84;100311.09;5073767;28;20417;-64
2021/05/09 05:37:48;;;;;;;5.90;1.67;;;;;;;19.08;53.23;100314.00;5075343;28;20118;-64
2021/05/09 05:40:17;;;;;;;7.03;1.88;;;;;;;19.13;52.95;100317.03;5075195;28;20487;-63
2021/05/09 05:42:42;;;;;;;3.85;1.50;;;;;;;19.18;53.27;100306.91;5074737;28;20575;-64
2021/05/09 05:45:11;;;;;;;5.03;1.77;;;;;;;19.23;53.28;100308.25;5075364;28;20052;-64
2021/05/09 05:47:37;;;;;;;6.85;2.60;;;;;;;19.22;52.79;100302.16;5075434;28;20031;-65
2021/05/09 05:50:04;;;;;;;4.53;1.70;;;;;;;19.28;52.63;100309.50;5074160;28;20123;-65
2021/05/09 05:52:30;;;;;;;4.97;1.80;;;;;;;19.32;53.08;100313.50;5074935;28;20048;-66
2021/05/09 05:54:55;;;;;;;4.90;1.45;;;;;;;19.35;52.76;100304.47;5075318;28;20392;-64
2021/05/09 05:57:23;;;;;;;5.53;1.73;;;;;;;19.39;52.83;100309.31;5074387;28;20025;-64
2021/05/09 05:59:52;;;;;;;4.60;1.45;;;;;;;19.45;52.67;100317.63;5075243;28;20066;-65
2021/05/09 06:02:18;;;;;;;6.25;1.70;;;;;;;19.47;52.81;100319.16;5074871;28;20020;-64
2021/05/09 06:04:44;;;;;;;4.22;1.52;;;;;;;19.50;52.55;100307.44;5074523;28;20108;-65
2021/05/09 06:07:12;;;;;;;4.97;1.73;;;;;;;19.50;52.76;100305.66;5075176;28;20048;-64
2021/05/09 06:09:38;;;;;;;5.25;1.60;;;;;;;19.52;52.35;100300.22;5075002;28;20077;-65
2021/05/09 06:12:05;;;;;;;5.47;1.83;;;;;;;19.55;52.76;100289.31;5074448;28;20476;-65
2021/05/09 06:14:30;;;;;;;5.00;1.48;;;;;;;19.57;52.69;100277.63;5074617;28;20032;-65
2021/05/09 06:16:56;;;;;;;4.18;1.73;;;;;;;19.62;52.63;100281.66;5075055;28;20028;-65
2021/05/09 06:19:25;;;;;;;4.82;1.58;;;;;;;19.65;52.58;100278.72;5073897;28;20020;-64
2021/05/09 06:21:51;;;;;;;4.07;1.50;;;;;;;19.68;52.51;100276.59;5074992;28;20472;-64
2021/05/09 06:24:16;;;;;;;4.22;1.40;;;;;;;19.71;52.25;100262.25;5074007;28;20067;-66
2021/05/09 06:26:41;;;;;;;5.20;1.63;;;;;;;19.72;52.16;100262.09;5074976;28;20030;-64
2021/05/09 06:29:08;;;;;;;4.68;1.48;;;;;;;19.72;52.27;100264.72;5074676;28;20412;-64
2021/05/09 06:31:33;;;;;;;5.47;1.67;;;;;;;19.74;52.48;100270.72;5073529;28;20024;-67
2021/05/09 06:33:59;;;;;;;5.32;1.75;;;;;;;19.75;52.21;100261.78;5073543;28;20027;-64
2021/05/09 06:36:25;;;;;;;6.32;1.63;;;;;;;19.78;52.15;100262.53;5074120;28;20028;-65
2021/05/09 06:38:50;;;;;;;3.63;1.50;;;;;;;19.78;52.29;100262.53;5073715;28;20119;-63
2021/05/09 06:41:20;;;;;;;7.03;1.70;;;;;;;19.82;52.26;100261.22;5073961;28;20113;-65
2021/05/09 06:43:46;;;;;;;4.78;1.60;;;;;;;19.83;51.97;100249.69;5074452;28;20380;-63
2021/05/09 06:46:11;;;;;;;5.00;1.50;;;;;;;19.84;52.30;100246.88;5073662;28;20027;-63
2021/05/09 06:48:37;;;;;;;4.65;1.50;;;;;;;19.84;52.03;100252.19;5073930;28;20020;-63
2021/05/09 06:51:05;;;;;;;4.15;1.58;;;;;;;19.86;52.52;100249.38;5074030;28;20147;-64
2021/05/09 06:53:31;;;;;;;5.05;1.33;;;;;;;19.87;52.47;100243.94;5073248;28;20390;-66
2021/05/09 06:55:58;;;;;;;3.97;1.60;;;;;;;19.90;52.34;100230.44;5074130;28;20535;-64
2021/05/09 06:58:25;;;;;;;5.85;1.63;;;;;;;19.92;52.50;100219.69;5073824;28;20086;-63
2021/05/09 07:00:50;;;;;;;4.38;1.55;;;;;;;19.94;52.81;100215.09;5073262;28;20020;-65
2021/05/09 07:03:17;;;;;;;5.25;1.50;;;;;;;19.96;52.50;100215.75;5073555;28;20074;-62
2021/05/09 07:05:43;;;;;;;5.88;1.65;;;;;;;19.98;52.64;100220.88;5072130;28;20120;-63
2021/05/09 07:08:09;;;;;;;4.10;1.50;;;;;;;19.98;52.87;100227.03;5073382;28;20028;-62
2021/05/09 07:10:36;;;;;;;4.93;1.60;;;;;;;20.00;52.77;100227.69;5073182;28;20544;-63
2021/05/09 07:13:02;;;;;;;3.75;1.30;;;;;;;20.00;52.94;100224.22;5074160;28;20083;-63
2021/05/09 07:15:34;;;;;;;5.50;1.83;;;;;;;19.98;52.98;100234.13;5072878;28;20468;-63
2021/05/09 07:18:13;;;;;;;4.65;1.58;;;;;;;19.99;52.81;100233.13;5073612;28;20031;-63
2021/05/09 07:20:45;;;;;;;3.78;1.40;;;;;;;19.96;53.44;100226.34;5072683;28;20116;-63
2021/05/09 07:23:12;;;;;;;4.32;1.70;;;;;;;19.97;53.20;100220.06;5073576;28;20028;-63
2021/05/09 07:25:41;;;;;;;6.78;1.75;;;;;;;19.97;53.78;100209.50;5073361;28;20048;-63
2021/05/09 07:28:09;;;;;;;3.63;1.40;;;;;;;19.97;53.39;100208.66;5072406;28;20024;-62
2021/05/09 07:30:38;;;;;;;8.32;1.85;;;;;;;19.94;53.60;100202.69;5073144;28;20037;-66
2021/05/09 07:33:09;;;;;;;4.57;1.67;;;;;;;19.94;53.81;100197.38;5073763;28;20027;-65
2021/05/09 07:35:36;;;;;;;7.10;1.85;;;;;;;19.96;53.78;100194.59;5072886;28;20128;-64
2021/05/09 07:38:06;;;;;;;6.57;1.73;;;;;;;19.97;53.88;100198.09;5074129;28;20025;-64
2021/05/09 07:40:32;;;;;;;6.35;1.90;;;;;;;19.97;53.92;100196.25;5073445;28;20043;-63
2021/05/09 07:42:58;;;;;;;5.38;1.70;;;;;;;19.95;54.11;100198.25;5072790;28;20348;-64
2021/05/09 07:45:24;;;;;;;5.90;1.50;;;;;;;19.95;54.07;100198.25;5074363;28;20031;-63
2021/05/09 07:47:50;;;;;;;6.25;1.60;;;;;;;19.95;53.90;100185.03;5075272;28;20085;-67
2021/05/09 07:50:17;;;;;;;4.68;1.60;;;;;;;19.94;54.18;100170.94;5072986;28;20040;-68
2021/05/09 07:52:48;;;;;;;6.90;1.65;;;;;;;19.96;53.95;100181.38;5074886;28;20044;-64
2021/05/09 07:55:14;;;;;;;4.28;1.65;;;;;;;19.95;54.00;100174.44;5073727;28;20115;-63
2021/05/09 07:57:40;;;;;;;6.95;1.80;;;;;;;19.96;53.96;100164.69;5073579;28;20040;-65
2021/05/09 08:00:08;;;;;;;6.72;1.90;;;;;;;19.94;54.36;100170.13;5074051;28;20028;-64
2021/05/09 08:02:36;;;;;;;8.40;2.60;;;;;;;19.95;54.39;100166.50;5073916;28;20452;-65
2021/05/09 08:05:02;;;;;;;3.92;1.38;;;;;;;19.97;54.38;100169.81;5074541;28;20052;-66
2021/05/09 08:07:28;;;;;;;4.22;1.45;;;;;;;20.00;54.45;100168.69;5073747;28;20027;-66
2021/05/09 08:09:53;;;;;;;4.65;1.50;;;;;;;20.01;54.82;100180.91;5073340;28;20033;-68
2021/05/09 08:12:18;;;;;;;3.45;1.35;;;;;;;20.02;54.58;100172.00;5075345;28;20032;-65
2021/05/09 08:14:44;;;;;;;7.18;1.70;;;;;;;20.02;54.27;100172.00;5073482;28;20055;-68
2021/05/09 08:17:09;;;;;;;4.00;1.60;;;;;;;20.01;53.85;100176.47;5072625;28;20082;-67
2021/05/09 08:19:35;;;;;;;5.93;1.70;;;;;;;19.94;53.34;100176.22;5072825;28;20111;-65
2021/05/09 08:22:06;;;;;;;4.20;1.70;;;;;;;19.97;53.42;100176.94;5072858;28;20104;-63
2021/05/09 08:24:32;;;;;;;5.40;1.30;;;;;;;19.93;52.72;100163.16;5071872;28;20414;-65
2021/05/09 08:26:58;;;;;;;3.95;1.75;;;;;;;19.90;52.82;100158.19;5072368;28;20027;-65
2021/05/09 08:29:24;;;;;;;2.95;1.20;;;;;;;19.88;52.39;100162.78;5072144;28;20111;-66
2021/05/09 08:31:50;;;;;;;4.97;1.60;;;;;;;19.89;52.34;100167.94;5071876;28;20024;-66
2021/05/09 08:34:15;;;;;;;3.55;1.40;;;;;;;19.87;52.20;100169.09;5072746;28;20036;-64
2021/05/09 08:36:41;;;;;;;3.53;1.55;;;;;;;19.85;52.57;100156.03;5073162;28;20024;-68
2021/05/09 08:39:06;;;;;;;4.93;1.58;;;;;;;19.85;52.67;100155.16;5071941;28;20361;-63
2021/05/09 08:41:42;;;;;;;4.53;1.70;;;;;;;19.86;52.79;100151.56;5072385;28;20482;-70
2021/05/09 08:44:09;;;;;;;5.55;1.70;;;;;;;19.89;53.02;100156.53;5077785;27;22149;-68
2021/05/09 08:46:36;;;;;;;4.40;1.40;;;;;;;19.90;53.09;100156.38;5071196;28;20032;-68
2021/05/09 08:49:04;;;;;;;6.32;1.30;;;;;;;19.93;53.07;100152.59;5072257;28;20074;-69
2021/05/09 08:51:31;;;;;;;6.53;1.67;;;;;;;19.92;52.92;100159.69;5071688;28;20040;-65
2021/05/09 08:53:56;;;;;;;4.18;1.60;;;;;;;19.92;53.07;100159.69;5071025;28;20063;-65
2021/05/09 08:56:27;;;;;;;4.57;1.77;;;;;;;19.92;53.26;100154.41;5071447;28;20024;-67
2021/05/09 08:58:53;;;;;;;3.67;1.30;;;;;;;19.93;53.12;100150.78;5072342;28;20104;-66
2021/05/09 09:01:19;;;;;;;4.20;1.50;;;;;;;19.92;53.47;100149.13;5071458;28;20080;-64
2021/05/09 09:03:47;;;;;;;5.03;1.40;;;;;;;19.94;53.56;100159.53;5071855;28;20058;-66
2021/05/09 09:06:36;;;;;;;3.92;1.50;;;;;;;19.98;53.25;100174.13;5071818;28;20020;-65
2021/05/09 09:09:02;;;;;;;6.63;1.80;;;;;;;20.02;53.01;100162.25;5072941;28;20047;-66
2021/05/09 09:11:28;;;;;;;3.67;1.50;;;;;;;20.04;53.20;100167.38;5072287;28;20406;-66
2021/05/09 09:14:09;;;;;;;4.38;1.58;;;;;;;20.09;53.31;100159.81;5072002;28;20044;-67
2021/05/09 09:16:36;;;;;;;2.60;1.20;;;;;;;20.13;53.18;100161.19;5071878;28;20017;-65
2021/05/09 09:19:07;;;;;;;3.15;1.40;;;;;;;20.13;52.86;100163.00;5072107;28;20024;-66
2021/05/09 09:21:33;;;;;;;3.78;1.85;;;;;;;20.16;52.38;100170.63;5071094;28;20197;-63
2021/05/09 09:24:10;;;;;;;4.18;1.67;;;;;;;20.17;53.22;100167.84;5071824;28;20066;-64
2021/05/09 09:27:02;;;;;;;2.72;1.30;;;;;;;20.18;53.12;100136.91;5072111;28;20329;-66
2021/05/09 09:29:31;;;;;;;3.33;1.60;;;;;;;20.15;53.10;100105.47;5068151;28;20047;-65
2021/05/09 09:32:02;;;;;;;3.25;1.40;;;;;;;20.16;53.19;100094.75;5072225;28;20035;-64
2021/05/09 09:34:40;;;;;;;3.80;1.65;;;;;;;20.15;53.26;100065.78;5071304;28;20020;-65
2021/05/09 09:37:07;;;;;;;3.78;1.52;;;;;;;20.14;53.56;100069.41;5070066;28;20041;-65
2021/05/09 09:39:51;;;;;;;4.63;1.70;;;;;;;20.15;53.05;100114.22;5051690;28;20101;-65
2021/05/09 09:42:35;;;;;;;3.78;1.40;;;;;;;20.16;53.10;100110.59;5051828;28;20043;-65
2021/05/09 09:45:21;;;;;;;3.38;1.55;;;;;;;20.16;53.36;100107.97;5051164;28;20136;-65
2021/05/09 09:47:49;;;;;;;3.00;1.60;;;;;;;20.20;53.03;100105.81;5051281;28;20148;-66
2021/05/09 09:50:34;;;;;;;2.97;1.40;;;;;;;20.24;52.97;100102.72;5049597;28;20044;-64
2021/05/09 09:53:00;;;;;;;3.47;1.70;;;;;;;20.28;53.33;100100.56;5051325;28;20035;-66
2021/05/09 09:55:25;;;;;;;4.25;1.70;;;;;;;20.33;53.13;100100.97;5049769;28;20041;-63
2021/05/09 09:58:01;;;;;;;3.15;1.60;;;;;;;20.36;52.86;100094.50;5051359;28;20028;-65
2021/05/09 10:00:27;;;;;;;3.13;1.60;;;;;;;20.39;53.09;100108.25;5050852;28;20033;-64
2021/05/09 10:02:56;;;;;;;3.55;1.58;;;;;;;20.40;52.68;100112.56;5050393;28;20438;-64
2021/05/09 10:05:22;;;;;;;3.88;1.83;;;;;;;20.41;52.46;100110.75;5050605;28;20067;-65
2021/05/09 10:07:48;;;;;;;3.83;1.77;;;;;;;20.44;52.63;100105.13;5051937;28;20095;-67
2021/05/09 10:10:14;;;;;;;3.40;1.45;;;;;;;20.41;52.19;100101.00;5053461;28;20033;-65
2021/05/09 10:12:43;;;;;;;2.33;1.35;;;;;;;20.40;52.27;100107.28;5054721;28;20479;-63
2021/05/09 10:15:09;;;;;;;4.57;1.80;;;;;;;20.38;52.51;100105.78;5053502;28;20029;-66
2021/05/09 10:17:41;;;;;;;3.70;1.60;;;;;;;20.36;52.82;100105.94;5053702;28;20025;-66
2021/05/09 10:20:10;;;;;;;3.55;1.75;;;;;;;20.34;52.38;100097.31;5054594;28;20117;-66
2021/05/09 10:22:38;;;;;;;3.92;1.60;;;;;;;20.30;52.48;100103.91;5056661;28;20032;-66
2021/05/09 10:25:07;;;;;;;3.15;1.50;;;;;;;20.30;52.52;100094.16;5074450;28;20048;-66
2021/05/09 10:27:40;;;;;;;3.17;1.45;;;;;;;20.32;52.67;100090.53;5074979;28;20025;-65
2021/05/09 10:30:13;;;;;;;4.18;1.55;;;;;;;20.30;52.59;100078.28;5074573;28;20032;-65
2021/05/09 10:32:38;;;;;;;3.80;1.80;;;;;;;20.33;52.68;100108.06;5074351;28;20032;-65
2021/05/09 10:35:10;;;;;;;3.07;1.60;;;;;;;20.32;53.12;100096.66;5075387;28;20025;-67
2021/05/09 10:37:42;;;;;;;3.83;2.00;;;;;;;20.32;53.08;100074.66;5073622;28;20028;-64
2021/05/09 10:40:28;;;;;;;2.95;1.50;;;;;;;20.26;53.45;100063.69;5074643;28;20037;-64
2021/05/09 10:43:08;;;;;;;4.40;1.52;;;;;;;20.24;53.55;100054.28;5074365;28;20476;-65
2021/05/09 10:45:33;;;;;;;3.80;1.65;;;;;;;20.22;53.62;100025.31;5073231;28;20132;-66
2021/05/09 10:48:14;;;;;;;4.65;1.88;;;;;;;20.22;53.87;100035.06;5074605;28;20055;-64
2021/05/09 10:50:47;;;;;;;2.72;1.42;;;;;;;20.20;54.20;100022.03;5074204;28;20056;-64
2021/05/09 10:53:36;;;;;;;4.05;1.50;;;;;;;20.20;54.27;100022.03;5074094;28;20025;-66
2021/05/09 10:56:06;;;;;;;5.97;1.52;;;;;;;20.21;54.24;100031.59;5074408;28;20441;-65
2021/05/09 10:58:49;;;;;;;3.38;1.50;;;;;;;20.21;54.48;100025.50;5073329;28;20498;-62
2021/05/09 11:01:24;;;;;;;4.88;1.90;;;;;;;20.22;54.61;100035.06;5073758;28;20025;-65
2021/05/09 11:03:54;;;;;;;6.32;1.80;;;;;;;20.24;55.14;100049.81;5074472;28;20092;-69
2021/05/09 11:06:23;;;;;;;3.10;1.42;;;;;;;20.27;55.12;100061.91;5073192;28;20033;-65
2021/05/09 11:08:55;;;;;;;4.03;1.77;;;;;;;20.30;55.53;100051.00;5073941;28;20031;-68
2021/05/09 11:11:33;;;;;;;4.03;1.63;;;;;;;20.34;55.10;100039.09;5073936;28;20107;-66
2021/05/09 11:13:59;;;;;;;3.70;1.83;;;;;;;20.36;55.12;100052.16;5074010;28;20029;-64
2021/05/09 11:16:29;;;;;;;3.67;1.58;;;;;;;20.37;55.26;100046.72;5073904;28;20024;-66
2021/05/09 11:19:02;;;;;;;5.07;1.77;;;;;;;20.38;55.06;100042.28;5073817;28;20054;-66
2021/05/09 11:21:32;;;;;;;4.20;1.47;;;;;;;20.36;54.74;100055.66;5072697;28;20147;-65
2021/05/09 11:23:58;;;;;;;3.47;1.60;;;;;;;20.34;54.59;100068.19;5073457;28;20036;-66
2021/05/09 11:26:26;;;;;;;3.13;1.70;;;;;;;20.30;54.38;100057.13;5073440;28;20024;-64